Terminal Aerodrome Forecast
Issued by NWS

Home | Current Version | Previous Version | Text Only | Print | Product List | Glossary Off
Versions: 1 2 3 4 5 6 7 8 9 10 11 12 13 14 15 16 17 18 19 20

000
FTUS43 KBIS 161130 AAB
TAFMOT
TAF AMD
KMOT 161130Z 1612/1712 12015KT P6SM OVC003
     FM161500 12015KT P6SM OVC008
     FM161600 12015G23KT P6SM OVC010
     FM161700 13016G24KT P6SM OVC070
     FM170300 19008KT P6SM BKN090
     FM170800 27011KT P6SM SCT200=

USA.gov is the U.S. government's official web portal to all federal, state and local government web resources and services.